Time;durP1;ratioP1;P1;durP2;ratioP2;P2;SDS_P1;SDS_P2;PMS_P1;PMS_P2;Temp;Humidity;BMP_temperature;BMP_pressure;BME280_temperature;BME280_humidity;BME280_pressure;Samples;Min_cycle;Max_cycle;Signal;HPM_P1;HPM_P2
2022/01/01 00:00:19;;;;;;;27.05;12.77;;;;;;;11.95;99.13;102183.13;6279584;22;20376;-90
2022/01/01 00:02:44;;;;;;;27.45;12.00;;;;;;;12.01;99.01;102186.94;6254657;22;20003;-88
2022/01/01 00:05:13;;;;;;;30.50;12.75;;;;;;;11.75;99.26;102145.63;6228488;22;20011;-87
2022/01/01 00:07:39;;;;;;;26.90;12.75;;;;;;;12.02;98.80;102184.03;6279184;22;20091;-87
2022/01/01 00:10:07;;;;;;;31.58;15.70;;;;;;;12.03;98.93;102195.75;6306163;22;20019;-87
2022/01/01 00:12:33;;;;;;;36.03;17.02;;;;;;;11.87;99.00;102175.03;6279089;22;20434;-87
2022/01/01 00:14:59;;;;;;;35.35;16.63;;;;;;;11.79;99.12;102164.28;6279028;22;20007;-87
2022/01/01 00:17:25;;;;;;;32.35;17.10;;;;;;;11.77;99.20;102162.59;6278385;22;20027;-87
2022/01/01 00:19:53;;;;;;;34.60;16.20;;;;;;;11.81;98.93;102175.78;6306422;22;20007;-87
2022/01/01 00:22:18;;;;;;;36.05;16.50;;;;;;;12.00;99.31;102204.28;6278807;22;20003;-87
2022/01/01 00:24:44;;;;;;;32.67;15.48;;;;;;;11.68;99.24;102152.88;6306246;22;20057;-88
2022/01/01 00:27:10;;;;;;;33.38;15.43;;;;;;;11.76;99.17;102171.78;6306299;22;20007;-88
2022/01/01 00:29:35;;;;;;;39.40;15.57;;;;;;;11.62;99.30;102150.06;6306264;22;19999;-87
2022/01/01 00:32:01;;;;;;;33.28;14.68;;;;;;;11.92;99.32;102195.19;6278818;22;19995;-87
2022/01/01 00:34:26;;;;;;;33.17;14.50;;;;;;;11.87;99.35;102192.22;6278386;22;20011;-87
2022/01/01 00:36:52;;;;;;;32.53;14.15;;;;;;;11.69;99.74;102172.72;6278758;22;20315;-87
2022/01/01 00:39:17;;;;;;;33.50;14.40;;;;;;;11.73;99.55;102176.75;6279090;22;20007;-87
2022/01/01 00:41:43;;;;;;;33.53;13.15;;;;;;;11.70;99.71;102169.81;6253633;22;20003;-87
2022/01/01 00:44:08;;;;;;;32.35;12.82;;;;;;;11.88;99.99;102201.19;6281076;22;20323;-86
2022/01/01 00:46:34;;;;;;;36.83;12.38;;;;;;;11.86;99.40;102201.38;6281005;22;19999;-86
2022/01/01 00:48:59;;;;;;;31.90;13.75;;;;;;;11.70;99.58;102164.38;6255294;22;20334;-87
2022/01/01 00:51:25;;;;;;;32.70;12.20;;;;;;;11.84;99.68;102192.59;6280927;22;19999;-87
2022/01/01 00:53:53;;;;;;;29.63;11.70;;;;;;;11.84;99.87;102187.16;6254760;22;20022;-87
2022/01/01 00:56:19;;;;;;;24.92;11.68;;;;;;;11.72;100.00;102173.22;6280921;22;20015;-87
2022/01/01 00:58:44;;;;;;;28.58;11.63;;;;;;;11.82;100.00;102199.25;6255610;22;20181;-87
2022/01/01 01:01:09;;;;;;;27.95;11.23;;;;;;;11.82;100.00;102193.81;6280640;22;20003;-87
2022/01/01 01:03:35;;;;;;;30.63;11.18;;;;;;;11.77;100.00;102200.66;6308107;22;20042;-87
2022/01/01 01:06:04;;;;;;;26.75;10.88;;;;;;;11.78;100.00;102193.38;6280827;22;20053;-87
2022/01/01 01:08:30;;;;;;;33.85;12.80;;;;;;;11.67;100.00;102178.34;6255639;22;20014;-87
2022/01/01 01:10:57;;;;;;;35.17;11.90;;;;;;;11.78;100.00;102196.09;6254253;22;20015;-86
2022/01/01 01:13:24;;;;;;;30.10;10.55;;;;;;;11.47;99.99;102147.38;6281017;22;20011;-87
2022/01/01 01:15:49;;;;;;;32.00;11.43;;;;;;;11.64;100.00;102177.91;6255554;22;20003;-87
2022/01/01 01:18:15;;;;;;;31.20;11.40;;;;;;;11.54;100.00;102159.16;6280621;22;20049;-87
2022/01/01 01:20:41;;;;;;;30.77;10.63;;;;;;;11.76;100.00;102200.84;6280885;22;20003;-87
2022/01/01 01:23:09;;;;;;;31.90;12.70;;;;;;;11.80;100.00;102199.44;6280734;22;20011;-87
2022/01/01 01:25:40;;;;;;;35.38;16.85;;;;;;;11.79;100.00;102199.63;6280522;22;20015;-87
2022/01/01 01:28:08;;;;;;;32.50;13.75;;;;;;;11.77;100.00;102197.09;6280231;22;20375;-86
2022/01/01 01:30:35;;;;;;;33.15;13.40;;;;;;;11.76;100.00;102200.84;6254979;22;20003;-87
2022/01/01 01:33:01;;;;;;;29.85;11.85;;;;;;;11.56;100.00;102159.84;6280501;22;20085;-87
2022/01/01 01:35:27;;;;;;;31.02;10.70;;;;;;;11.64;100.00;102178.75;6308033;22;19998;-87
2022/01/01 01:37:55;;;;;;;30.10;11.75;;;;;;;11.75;100.00;102191.84;6280539;22;20008;-87
2022/01/01 01:40:20;;;;;;;28.38;11.35;;;;;;;11.71;100.00;102192.44;6255628;22;20006;-87
2022/01/01 01:42:46;;;;;;;32.08;11.77;;;;;;;11.68;100.00;102200.97;6255082;22;20008;-88
2022/01/01 01:45:16;;;;;;;26.02;10.80;;;;;;;11.45;100.00;102192.91;6254562;22;20086;-87
2022/01/01 01:47:42;;;;;;;31.50;11.02;;;;;;;11.49;100.00;102200.50;6255828;22;20003;-87
2022/01/01 01:50:10;;;;;;;30.35;11.07;;;;;;;11.65;100.00;102229.38;6307656;22;20014;-87
2022/01/01 01:52:37;;;;;;;28.65;11.68;;;;;;;11.47;100.00;102202.59;6280211;22;20430;-87
2022/01/01 01:55:07;;;;;;;31.42;12.77;;;;;;;11.63;100.00;102225.97;6280676;22;20430;-87
2022/01/01 01:57:40;;;;;;;31.05;12.90;;;;;;;11.63;100.00;102222.44;6308060;22;20065;-87
2022/01/01 02:00:18;;;;;;;30.88;11.93;;;;;;;11.59;100.00;102217.38;6280301;22;20338;-87
2022/01/01 02:02:44;;;;;;;33.00;13.00;;;;;;;11.52;100.00;102202.00;6280080;22;20092;-87
2022/01/01 02:05:09;;;;;;;35.60;12.98;;;;;;;11.43;100.00;102173.22;6255315;22;20414;-87
2022/01/01 02:07:39;;;;;;;27.00;11.48;;;;;;;11.71;100.00;102230.50;6280258;22;20013;-87
2022/01/01 02:10:05;;;;;;;34.35;17.35;;;;;;;11.39;100.00;102181.75;6280133;22;20422;-87
2022/01/01 02:12:32;;;;;;;26.42;12.18;;;;;;;11.74;100.00;102228.22;6279680;22;20011;-87
2022/01/01 02:17:24;;;;;;;25.42;12.30;;;;;;;11.72;100.00;102224.00;6281012;22;20022;-87
2022/01/01 02:19:59;;;;;;;28.38;11.93;;;;;;;11.55;100.00;102188.03;6279543;22;20007;-87
2022/01/01 02:22:25;;;;;;;24.75;11.48;;;;;;;11.63;100.00;102201.50;6280109;22;20635;-87
2022/01/01 02:24:54;;;;;;;26.38;11.57;;;;;;;11.58;100.00;102183.06;6254456;22;20017;-87
2022/01/01 02:27:20;;;;;;;26.23;11.88;;;;;;;11.52;100.00;102164.78;6280152;22;20472;-87
2022/01/01 02:29:45;;;;;;;27.77;13.00;;;;;;;11.66;100.00;102194.88;6254396;22;20003;-87
2022/01/01 02:32:19;;;;;;;27.30;12.20;;;;;;;11.79;100.00;102213.22;6279811;22;20483;-87
2022/01/01 02:34:44;;;;;;;29.02;12.50;;;;;;;11.60;100.00;102177.44;6279935;22;20007;-87
2022/01/01 02:37:10;;;;;;;27.17;13.68;;;;;;;11.74;100.00;102206.47;6279556;22;20085;-87
2022/01/01 02:39:38;;;;;;;29.80;12.68;;;;;;;11.70;100.00;102193.47;6307123;22;20078;-87
2022/01/01 02:42:08;;;;;;;29.58;13.82;;;;;;;11.72;100.00;102202.25;6279304;22;20022;-87
2022/01/01 02:44:33;;;;;;;31.08;13.85;;;;;;;11.81;100.00;102216.59;6306855;22;20003;-87
2022/01/01 02:46:59;;;;;;;30.05;13.70;;;;;;;11.84;100.00;102222.50;6279896;22;20013;-87
2022/01/01 02:49:24;;;;;;;26.33;12.80;;;;;;;11.68;100.00;102195.53;6279755;22;20007;-87
2022/01/01 02:51:50;;;;;;;30.67;13.70;;;;;;;11.54;100.00;102162.72;6229001;22;20003;-87
2022/01/01 02:54:16;;;;;;;28.35;13.45;;;;;;;11.78;100.00;102209.69;6278807;22;20015;-87
2022/01/01 02:56:41;;;;;;;25.23;13.18;;;;;;;11.63;100.00;102160.72;6280165;22;20027;-87
2022/01/01 02:59:07;;;;;;;26.63;14.25;;;;;;;11.66;100.00;102173.97;6279355;22;20439;-87
2022/01/01 03:01:32;;;;;;;23.50;13.68;;;;;;;11.68;100.00;102160.19;6307024;22;20022;-87
2022/01/01 03:04:00;;;;;;;26.50;13.55;;;;;;;11.80;100.00;102183.13;6307201;22;20039;-87
2022/01/01 03:06:28;;;;;;;26.48;13.77;;;;;;;11.69;99.87;102156.41;6306688;22;20081;-87
2022/01/01 03:08:55;;;;;;;27.52;13.68;;;;;;;11.79;100.00;102189.59;6279554;22;20003;-87
2022/01/01 03:11:24;;;;;;;23.52;13.00;;;;;;;11.68;100.00;102168.34;6279273;22;20461;-87
2022/01/01 03:13:49;;;;;;;28.58;14.18;;;;;;;11.64;100.00;102161.59;6279561;22;20396;-87
2022/01/01 03:16:18;;;;;;;32.65;14.40;;;;;;;11.81;100.00;102197.56;6306888;22;20003;-87
2022/01/01 03:18:46;;;;;;;27.85;13.77;;;;;;;11.61;100.00;102165.53;6279538;22;20026;-87
2022/01/01 03:21:14;;;;;;;26.20;13.38;;;;;;;11.80;99.71;102188.56;6279503;22;20319;-87
2022/01/01 03:23:40;;;;;;;29.75;13.48;;;;;;;11.81;100.00;102198.41;6279772;22;20438;-87
2022/01/01 03:26:05;;;;;;;30.40;13.30;;;;;;;11.73;100.00;102174.03;6306772;22;20029;-87
2022/01/01 03:28:33;;;;;;;26.15;12.68;;;;;;;11.77;99.76;102186.22;6306653;22;20082;-86
2022/01/01 03:30:59;;;;;;;27.23;12.52;;;;;;;11.67;99.88;102164.78;6306174;22;20090;-86
2022/01/01 03:33:24;;;;;;;27.15;12.30;;;;;;;11.77;100.00;102178.06;6279290;22;20035;-86
2022/01/01 03:35:50;;;;;;;25.88;11.80;;;;;;;11.81;99.68;102176.66;6306697;22;20367;-87
2022/01/01 03:38:17;;;;;;;20.52;11.32;;;;;;;11.70;99.45;102163.56;6279773;22;20046;-87
2022/01/01 03:40:43;;;;;;;24.00;11.50;;;;;;;11.77;99.53;102175.34;6306584;22;19995;-87
2022/01/01 03:43:08;;;;;;;25.00;11.32;;;;;;;11.81;99.17;102184.81;6306562;22;20383;-86
2022/01/01 03:45:36;;;;;;;25.10;10.65;;;;;;;11.69;99.10;102164.56;6279537;22;20034;-87
2022/01/01 03:48:03;;;;;;;23.88;11.32;;;;;;;11.75;99.18;102175.53;6278753;22;20056;-86
2022/01/01 03:50:32;;;;;;;24.30;9.85;;;;;;;11.76;98.94;102179.09;6306537;22;20056;-87
2022/01/01 03:52:58;;;;;;;22.38;9.98;;;;;;;11.66;98.76;102152.22;6306553;22;20049;-87
2022/01/01 03:55:23;;;;;;;21.00;10.15;;;;;;;11.67;98.57;102143.03;6253590;22;20412;-87
2022/01/01 03:57:52;;;;;;;24.83;9.48;;;;;;;11.80;98.50;102169.53;6279434;22;20086;-87
2022/01/01 04:00:18;;;;;;;20.92;8.90;;;;;;;11.83;98.33;102173.75;6279241;22;20003;-87
2022/01/01 04:02:46;;;;;;;23.67;9.38;;;;;;;11.59;98.07;102133.09;6279340;22;20498;-87
2022/01/01 04:05:11;;;;;;;22.40;9.15;;;;;;;11.69;97.91;102157.28;6253001;22;20353;-87
2022/01/01 04:07:37;;;;;;;18.52;8.90;;;;;;;11.71;97.65;102151.66;6306862;22;20003;-87
2022/01/01 04:10:03;;;;;;;18.90;8.57;;;;;;;11.77;97.06;102168.03;6279028;22;20007;-87
2022/01/01 04:12:29;;;;;;;21.27;8.35;;;;;;;11.84;96.90;102173.56;6277765;22;20055;-87
2022/01/01 04:14:54;;;;;;;18.42;8.75;;;;;;;11.70;96.86;102147.25;6252360;22;20092;-87
2022/01/01 04:17:20;;;;;;;20.65;7.90;;;;;;;11.68;96.86;102139.28;6277618;22;20068;-87
2022/01/01 04:19:45;;;;;;;16.88;7.90;;;;;;;11.88;96.93;102174.00;6277850;22;20472;-86
2022/01/01 04:22:13;;;;;;;23.33;8.60;;;;;;;11.71;96.57;102152.47;6251753;22;20027;-87
2022/01/01 04:24:39;;;;;;;17.25;7.85;;;;;;;11.77;96.45;102142.72;6277759;22;20007;-87
2022/01/01 04:27:05;;;;;;;21.02;7.78;;;;;;;11.82;96.28;102148.41;6305075;22;20006;-87
2022/01/01 04:29:31;;;;;;;19.63;8.10;;;;;;;11.97;95.54;102166.59;6251237;22;20007;-87
2022/01/01 04:31:59;;;;;;;20.42;7.95;;;;;;;11.61;95.55;102119.31;6277505;22;20060;-87
2022/01/01 04:34:25;;;;;;;19.45;7.68;;;;;;;11.72;95.42;102137.00;6253226;22;20018;-87
2022/01/01 04:37:00;;;;;;;20.38;7.38;;;;;;;11.74;95.39;102137.66;6277549;22;20342;-87
2022/01/01 04:39:26;;;;;;;15.15;8.10;;;;;;;11.85;95.28;102156.19;6277176;22;20007;-87
2022/01/01 04:41:51;;;;;;;20.33;7.40;;;;;;;11.94;95.07;102175.97;6277914;22;20000;-87
2022/01/01 04:44:17;;;;;;;19.63;7.53;;;;;;;11.85;94.92;102160.78;6305054;22;20022;-87
2022/01/01 04:46:42;;;;;;;19.20;7.40;;;;;;;11.94;95.05;102167.81;6277800;22;20038;-87
2022/01/01 04:49:07;;;;;;;22.38;7.88;;;;;;;11.69;94.86;102140.97;6226988;22;20403;-87
2022/01/01 04:51:33;;;;;;;20.00;7.95;;;;;;;11.99;94.82;102186.28;6277591;22;20010;-87
2022/01/01 04:54:01;;;;;;;18.85;7.72;;;;;;;11.87;94.91;102175.88;6277573;22;20011;-87
2022/01/01 04:56:29;;;;;;;20.77;7.65;;;;;;;11.99;94.73;102198.03;6277878;22;20010;-87
2022/01/01 04:58:55;;;;;;;19.45;7.50;;;;;;;11.85;94.26;102182.53;6227527;22;20085;-86
2022/01/01 05:01:21;;;;;;;18.27;7.55;;;;;;;11.90;94.39;102186.38;6304721;22;19996;-86
2022/01/01 05:03:46;;;;;;;18.65;8.45;;;;;;;11.80;94.50;102157.81;6277414;22;20023;-87
2022/01/01 05:06:12;;;;;;;17.48;7.65;;;;;;;11.98;94.75;102198.22;6304825;22;19999;-87
2022/01/01 05:08:38;;;;;;;15.38;7.03;;;;;;;11.93;94.73;102198.78;6251678;22;20341;-86
2022/01/01 05:11:04;;;;;;;17.52;7.78;;;;;;;11.75;94.54;102167.38;6059587;22;4885697;-87
2022/01/01 05:13:30;;;;;;;20.13;7.80;;;;;;;11.63;94.69;102152.59;6278262;22;20366;-88
2022/01/01 05:15:57;;;;;;;21.50;7.65;;;;;;;11.96;94.58;102208.44;6253254;22;20003;-87
2022/01/01 05:18:23;;;;;;;16.58;7.47;;;;;;;11.74;94.63;102165.69;6306061;22;20078;-87
2022/01/01 05:20:52;;;;;;;17.85;7.35;;;;;;;11.61;94.13;102148.38;6278734;22;20049;-87
2022/01/01 05:23:18;;;;;;;18.95;7.43;;;;;;;11.58;94.33;102161.31;6279087;22;20015;-87
2022/01/01 05:25:43;;;;;;;18.25;7.90;;;;;;;11.72;94.44;102181.38;6253240;22;20003;-88
2022/01/01 05:28:09;;;;;;;17.08;8.00;;;;;;;11.84;94.40;102197.16;6253824;22;20015;-87
2022/01/01 05:30:34;;;;;;;15.52;7.32;;;;;;;11.75;94.42;102182.84;6280094;22;19999;-87
2022/01/01 05:33:01;;;;;;;18.75;7.47;;;;;;;11.67;94.38;102175.63;6228326;22;20003;-87
2022/01/01 05:35:26;;;;;;;19.70;7.72;;;;;;;11.76;94.10;102192.69;6307957;22;20000;-87
2022/01/01 05:37:52;;;;;;;18.15;7.80;;;;;;;11.58;94.32;102153.16;6307852;22;20078;-86
2022/01/01 05:40:17;;;;;;;17.52;7.13;;;;;;;11.68;94.42;102171.91;6280508;22;20011;-87
2022/01/01 05:42:43;;;;;;;18.17;7.15;;;;;;;11.66;93.85;102159.53;6255036;22;20011;-87
2022/01/01 05:45:09;;;;;;;17.85;7.38;;;;;;;11.87;94.10;102199.50;6307808;22;20030;-87
2022/01/01 05:47:34;;;;;;;18.52;7.07;;;;;;;11.87;94.20;102207.66;6280590;22;20011;-87
2022/01/01 05:49:59;;;;;;;16.98;7.25;;;;;;;11.89;93.84;102206.44;6280030;22;20003;-87
2022/01/01 05:52:26;;;;;;;18.15;6.93;;;;;;;11.88;93.84;102203.91;6280294;22;20003;-87
2022/01/01 05:54:51;;;;;;;16.75;7.15;;;;;;;11.88;93.91;102207.47;6280681;22;20007;-88
2022/01/01 05:57:16;;;;;;;19.98;7.15;;;;;;;11.70;93.59;102169.81;6255017;22;20335;-87
2022/01/01 05:59:42;;;;;;;17.55;6.97;;;;;;;11.80;93.45;102182.28;6280312;22;20007;-87
2022/01/01 06:02:09;;;;;;;18.92;7.22;;;;;;;11.70;93.59;102175.25;6254944;22;20056;-87
2022/01/01 06:04:37;;;;;;;17.00;6.72;;;;;;;11.81;93.43;102192.97;6280100;22;20014;-87
2022/01/01 06:07:07;;;;;;;15.50;6.32;;;;;;;11.70;93.48;102160.84;6254955;22;20350;-87
2022/01/01 06:09:32;;;;;;;17.40;6.53;;;;;;;11.81;93.48;102189.41;6281434;22;20022;-87
2022/01/01 06:11:58;;;;;;;18.23;6.93;;;;;;;11.79;93.55;102186.03;6254285;22;20015;-88
2022/01/01 06:14:23;;;;;;;17.15;6.60;;;;;;;11.63;93.75;102168.06;6254681;22;20372;-88
2022/01/01 06:16:49;;;;;;;17.85;6.72;;;;;;;11.59;94.39;102189.34;6280206;22;20011;-87
2022/01/01 06:19:14;;;;;;;17.60;6.95;;;;;;;11.46;94.54;102176.44;6280253;22;20014;-88
2022/01/01 06:21:40;;;;;;;20.25;7.00;;;;;;;11.35;94.70;102156.03;6254743;22;20023;-87
2022/01/01 06:24:06;;;;;;;18.85;7.40;;;;;;;11.41;95.37;102181.56;6306984;22;20773;-88
2022/01/01 06:26:32;;;;;;;16.80;7.10;;;;;;;11.32;95.39;102172.66;6307453;22;20345;-87
2022/01/01 06:28:57;;;;;;;17.58;6.15;;;;;;;11.24;95.54;102175.50;6280059;22;20335;-87
2022/01/01 06:31:23;;;;;;;19.55;6.97;;;;;;;11.14;95.67;102172.22;6279979;22;20003;-87
2022/01/01 06:33:48;;;;;;;18.55;6.63;;;;;;;11.11;95.79;102161.72;6280079;22;20418;-87
2022/01/01 06:36:14;;;;;;;16.67;6.22;;;;;;;11.15;95.43;102174.75;6280176;22;20477;-86
2022/01/01 06:38:41;;;;;;;19.00;5.97;;;;;;;11.15;95.61;102191.03;6279762;22;20029;-86
2022/01/01 06:41:07;;;;;;;16.95;6.18;;;;;;;11.15;95.74;102193.75;6278989;22;20006;-86
2022/01/01 06:43:32;;;;;;;12.95;5.88;;;;;;;11.14;95.80;102196.66;6279771;22;20034;-86
2022/01/01 06:45:58;;;;;;;18.50;5.75;;;;;;;11.02;95.50;102177.28;6254518;22;20030;-86
2022/01/01 06:48:23;;;;;;;19.92;6.28;;;;;;;10.98;95.94;102182.22;6279843;22;20507;-86
2022/01/01 06:50:49;;;;;;;12.98;5.97;;;;;;;10.90;95.67;102162.47;6279867;22;20378;-87
2022/01/01 06:53:14;;;;;;;13.55;5.85;;;;;;;10.95;95.73;102168.19;6280038;22;20487;-87
2022/01/01 06:55:40;;;;;;;14.90;5.78;;;;;;;10.96;95.53;102170.69;6279914;22;20343;-87
2022/01/01 06:58:05;;;;;;;14.98;5.00;;;;;;;11.12;95.50;102196.84;6279629;22;20053;-87
2022/01/01 07:00:31;;;;;;;14.95;5.65;;;;;;;11.03;95.47;102185.22;6280065;22;20003;-87
2022/01/01 07:02:57;;;;;;;14.95;5.50;;;;;;;11.05;95.09;102187.75;6279614;22;20003;-90
2022/01/01 07:05:22;;;;;;;14.48;5.50;;;;;;;11.22;94.81;102207.47;6280411;22;19999;-89
2022/01/01 07:07:48;;;;;;;15.52;5.47;;;;;;;11.30;94.10;102212.78;6280238;22;20422;-85
2022/01/01 07:10:13;;;;;;;15.95;6.00;;;;;;;11.15;94.57;102176.63;6279576;22;20011;-87
2022/01/01 07:12:40;;;;;;;17.73;5.40;;;;;;;11.36;94.08;102220.19;6306741;22;20431;-85
2022/01/01 07:15:09;;;;;;;14.13;4.90;;;;;;;11.26;93.92;102205.19;6228368;22;20017;-85
2022/01/01 07:17:34;;;;;;;15.82;5.43;;;;;;;11.41;93.84;102219.63;6306719;22;20446;-85
2022/01/01 07:20:00;;;;;;;12.10;5.32;;;;;;;11.50;92.87;102226.66;6306780;22;20003;-86
2022/01/01 07:22:26;;;;;;;13.25;4.93;;;;;;;11.46;92.98;102224.50;6254725;22;20034;-90
2022/01/01 07:24:55;;;;;;;13.73;5.50;;;;;;;11.41;93.18;102220.47;6255394;22;20007;-91
2022/01/01 07:27:32;;;;;;;15.02;6.13;;;;;;;11.37;93.56;102223.75;6280476;22;20442;-92
2022/01/01 07:29:58;;;;;;;16.70;5.63;;;;;;;11.26;93.15;102207.91;6233596;22;20007;-91
2022/01/01 07:32:26;;;;;;;17.38;5.45;;;;;;;11.16;93.09;102195.47;6254358;22;20522;-91
2022/01/01 07:34:55;;;;;;;16.40;5.93;;;;;;;11.28;93.55;102227.56;6228889;22;20346;-92
2022/01/01 07:37:25;;;;;;;13.38;5.30;;;;;;;11.15;93.64;102212.78;6256364;22;20090;-92
2022/01/01 07:39:53;;;;;;;12.10;5.22;;;;;;;11.16;93.54;102213.59;6281375;22;20003;-92
2022/01/01 07:42:22;;;;;;;14.43;6.07;;;;;;;11.03;93.98;102201.53;6281174;22;19995;-93
2022/01/01 07:52:06;;;;;;;14.82;5.03;;;;;;;10.97;93.88;102196.84;6308628;22;20050;-95
2022/01/01 07:58:49;;;;;;;12.18;5.10;;;;;;;11.14;93.26;102210.25;6152794;23;20005;-90
2022/01/01 08:04:45;;;;;;;13.63;5.05;;;;;;;11.17;92.72;102228.88;6305715;22;20086;-93
2022/01/01 08:07:29;;;;;;;13.73;5.03;;;;;;;11.01;92.55;102195.44;6281544;22;20007;-93
2022/01/01 08:10:37;;;;;;;15.40;5.15;;;;;;;10.99;92.72;102192.06;6281045;22;20382;-92
2022/01/01 08:13:04;;;;;;;14.68;5.82;;;;;;;11.00;92.56;102191.03;6270938;22;20077;-92
2022/01/01 08:15:33;;;;;;;10.52;5.60;;;;;;;10.94;92.40;102183.63;6280585;22;20377;-93
2022/01/01 08:18:01;;;;;;;18.10;5.68;;;;;;;11.17;92.44;102218.84;6255119;22;20014;-93
2022/01/01 08:23:35;;;;;;;15.18;5.47;;;;;;;11.02;92.48;102193.56;6285679;22;20334;-92
2022/01/01 08:26:02;;;;;;;16.42;5.70;;;;;;;11.06;92.27;102200.31;6280877;22;20007;-92
2022/01/01 08:28:28;;;;;;;15.68;6.13;;;;;;;11.09;92.20;102201.78;6255506;22;20018;-92
2022/01/01 08:31:09;;;;;;;18.17;6.03;;;;;;;11.06;92.66;102203.03;6254088;22;20014;-91
2022/01/01 08:33:40;;;;;;;14.88;5.32;;;;;;;11.05;92.11;102207.59;6254913;22;20007;-92
2022/01/01 08:36:11;;;;;;;16.58;5.57;;;;;;;11.03;92.52;102209.69;6280507;22;20342;-92
2022/01/01 08:38:37;;;;;;;16.60;5.95;;;;;;;11.06;92.43;102206.59;6256416;22;20011;-92
2022/01/01 08:41:09;;;;;;;14.60;6.05;;;;;;;11.15;92.43;102220.09;6290445;22;20011;-91
2022/01/01 08:43:38;;;;;;;;;;;;;;;11.39;92.67;102255.13;6291687;22;20171;-92
2022/01/01 08:46:07;;;;;;;15.93;5.93;;;;;;;11.01;92.21;102198.16;6256681;22;19906;-92
2022/01/01 08:48:44;;;;;;;16.73;6.38;;;;;;;11.30;92.15;102250.00;6281985;22;20007;-91
2022/01/01 08:51:19;;;;;;;16.23;6.20;;;;;;;10.97;92.68;102207.69;6281020;22;20077;-91
2022/01/01 08:53:46;;;;;;;13.63;6.35;;;;;;;10.88;92.78;102201.50;6280468;22;20026;-92
2022/01/01 08:56:17;;;;;;;15.15;6.28;;;;;;;10.93;92.61;102206.38;6280974;22;20060;-91
2022/01/01 08:58:46;;;;;;;21.45;6.75;;;;;;;11.22;92.83;102265.34;6255493;22;20026;-93
2022/01/01 09:01:12;;;;;;;15.18;6.80;;;;;;;11.08;92.92;102236.28;6278943;22;20000;-89
2022/01/01 09:03:38;;;;;;;17.98;6.72;;;;;;;11.00;92.66;102211.94;6279848;22;20015;-89
2022/01/01 09:06:07;;;;;;;15.25;6.40;;;;;;;11.26;92.63;102246.78;6281257;22;19999;-90
2022/01/01 09:08:35;;;;;;;15.25;7.00;;;;;;;11.11;92.40;102213.34;6308474;22;20003;-90
2022/01/01 09:11:02;;;;;;;13.98;6.80;;;;;;;11.10;92.34;102209.78;6255933;22;20009;-89
2022/01/01 09:13:27;;;;;;;15.82;7.35;;;;;;;11.32;92.57;102237.06;6255319;22;20341;-90
2022/01/01 09:15:53;;;;;;;13.88;6.68;;;;;;;11.32;92.11;102243.31;6280569;22;20078;-91
2022/01/01 09:18:22;;;;;;;16.73;6.47;;;;;;;11.05;92.07;102194.03;6281068;22;20015;-90
2022/01/01 09:20:48;;;;;;;14.88;6.47;;;;;;;11.31;92.43;102238.94;6255700;22;19999;-90
2022/01/01 09:23:14;;;;;;;14.80;7.07;;;;;;;11.27;92.16;102226.75;6281507;22;20116;-90
2022/01/01 09:25:41;;;;;;;17.08;7.25;;;;;;;11.02;92.54;102188.97;6255286;22;20392;-90
2022/01/01 09:28:07;;;;;;;18.35;7.20;;;;;;;11.13;92.22;102206.69;6281079;22;20022;-88
2022/01/01 09:30:32;;;;;;;17.55;7.55;;;;;;;11.06;92.23;102187.56;6281086;22;19999;-91
2022/01/01 09:33:02;;;;;;;12.07;6.10;;;;;;;11.08;91.87;102184.66;6280584;22;20011;-89
2022/01/01 09:35:28;;;;;;;13.27;6.78;;;;;;;11.28;92.09;102214.00;6256064;22;20007;-89
2022/01/01 09:37:56;;;;;;;15.70;6.95;;;;;;;11.38;91.88;102225.44;6280579;22;20007;-91
2022/01/01 09:40:22;;;;;;;14.30;6.80;;;;;;;11.08;92.06;102183.84;6280871;22;20346;-90
2022/01/01 09:42:48;;;;;;;15.95;6.93;;;;;;;11.38;92.07;102236.28;6280516;22;19999;-89
2022/01/01 09:45:14;;;;;;;19.23;7.18;;;;;;;11.38;92.06;102231.72;6255084;22;20038;-90
2022/01/01 09:47:40;;;;;;;14.30;7.22;;;;;;;11.20;91.79;102199.47;6280584;22;20089;-90
2022/01/01 09:50:06;;;;;;;17.30;6.95;;;;;;;11.18;92.13;102208.84;6280143;22;20413;-89
2022/01/01 09:52:33;;;;;;;14.32;6.93;;;;;;;11.00;91.78;102163.88;6254740;22;20090;-88
2022/01/01 09:54:58;;;;;;;17.33;7.38;;;;;;;11.28;92.43;102216.72;6255386;22;20373;-89
2022/01/01 09:57:24;;;;;;;15.45;6.90;;;;;;;11.28;92.31;102214.00;6281126;22;20078;-89
2022/01/01 09:59:49;;;;;;;13.88;6.97;;;;;;;11.29;92.54;102215.69;6254834;22;20346;-90
2022/01/01 10:02:14;;;;;;;14.65;6.63;;;;;;;10.99;92.36;102169.50;6280496;22;20422;-90
2022/01/01 10:04:52;;;;;;;11.95;6.70;;;;;;;11.14;92.61;102196.66;6279599;22;20003;-88
2022/01/01 10:07:27;;;;;;;13.48;6.90;;;;;;;11.01;92.43;102162.00;6280748;22;20007;-89
2022/01/01 10:09:52;;;;;;;14.00;6.93;;;;;;;10.99;92.52;102156.75;6280180;22;20391;-88
2022/01/01 10:12:36;;;;;;;17.30;7.00;;;;;;;11.08;92.41;102159.38;6307075;22;20042;-88
2022/01/01 10:15:07;;;;;;;16.65;6.82;;;;;;;11.23;92.04;102177.38;6306952;22;20026;-88
2022/01/01 10:17:34;;;;;;;14.88;7.32;;;;;;;11.21;92.12;102163.13;6280199;22;20064;-89
2022/01/01 10:19:59;;;;;;;13.02;6.55;;;;;;;11.43;91.68;102192.25;6228966;22;20007;-88
2022/01/01 10:22:25;;;;;;;14.25;6.40;;;;;;;11.48;91.42;102182.50;6254965;22;20057;-88
2022/01/01 10:28:06;;;;;;;15.13;6.72;;;;;;;11.34;91.48;102146.16;6307622;22;20018;-89
2022/01/01 10:30:39;;;;;;;11.68;6.70;;;;;;;11.44;91.08;102153.19;6279852;22;20057;-88
2022/01/01 10:33:20;;;;;;;17.02;6.75;;;;;;;11.65;90.80;102174.13;6279809;22;20033;-88
2022/01/01 10:35:50;;;;;;;13.30;6.72;;;;;;;11.27;91.10;102126.22;6307428;22;20007;-88
2022/01/01 10:38:22;;;;;;;12.95;6.13;;;;;;;11.49;91.16;102145.31;6279862;22;20011;-88
2022/01/01 10:40:53;;;;;;;12.45;6.60;;;;;;;11.72;90.42;102170.50;6307331;22;20025;-89
2022/01/01 10:43:20;;;;;;;12.50;6.30;;;;;;;11.60;90.79;102147.53;6279434;22;20006;-89
2022/01/01 10:45:50;;;;;;;11.90;6.00;;;;;;;11.79;90.41;102162.41;6280203;22;20007;-88
2022/01/01 10:48:27;;;;;;;11.68;5.82;;;;;;;11.87;89.51;102143.25;6279663;22;20078;-89
2022/01/01 10:50:54;;;;;;;11.70;5.88;;;;;;;12.05;89.67;102142.00;6255558;22;20022;-88
2022/01/01 10:53:37;;;;;;;12.18;5.93;;;;;;;12.03;89.05;102138.63;6307333;22;20007;-88
2022/01/01 10:56:15;;;;;;;10.75;5.72;;;;;;;11.92;88.76;102104.59;6279726;22;20010;-88
2022/01/01 10:58:41;;;;;;;12.98;5.50;;;;;;;11.92;88.26;102088.28;6279270;22;20009;-88
2022/01/01 11:01:25;;;;;;;11.45;5.72;;;;;;;12.15;88.10;102126.22;6278910;22;20041;-89
2022/01/01 11:04:00;;;;;;;11.82;5.78;;;;;;;12.23;88.36;102152.44;6306809;22;20018;-88
2022/01/01 11:06:32;;;;;;;13.45;5.57;;;;;;;12.16;88.80;102144.19;6279315;22;20006;-88
2022/01/01 11:08:58;;;;;;;10.93;5.35;;;;;;;11.80;88.50;102087.13;6278980;22;20090;-88
2022/01/01 11:11:24;;;;;;;12.07;5.10;;;;;;;11.91;88.52;102098.31;6279184;22;20007;-88
2022/01/01 11:13:53;;;;;;;13.32;5.47;;;;;;;11.97;88.14;102114.94;6228623;22;20493;-88
2022/01/01 11:16:19;;;;;;;10.30;5.22;;;;;;;12.12;87.83;102126.59;6253813;22;20179;-88
2022/01/01 11:18:47;;;;;;;11.13;4.80;;;;;;;11.92;88.26;102089.13;6279304;22;20056;-88
2022/01/01 11:21:12;;;;;;;10.82;5.53;;;;;;;12.07;87.44;102089.06;6279651;22;20003;-88
2022/01/01 11:23:42;;;;;;;8.55;5.43;;;;;;;12.33;87.12;102114.00;6279313;22;20303;-88
2022/01/01 11:26:08;;;;;;;10.40;5.00;;;;;;;12.51;86.78;102130.69;6279194;22;20007;-89
2022/01/01 11:28:34;;;;;;;9.70;4.72;;;;;;;12.55;86.18;102102.06;6279063;22;20426;-88
2022/01/01 11:31:26;;;;;;;11.80;4.78;;;;;;;12.87;86.17;102116.06;6253465;22;20015;-88
2022/01/01 11:34:00;;;;;;;10.38;4.53;;;;;;;13.03;84.51;102101.31;6271687;22;20007;-88
2022/01/01 11:36:32;;;;;;;11.77;4.40;;;;;;;13.43;83.29;102103.41;6278912;22;20003;-89